KCMH/CMH METAR and TAF weather

Enter ICAO airport designator
Station Type Date Time Source
KCMH METAR 2022/06/29 23:51 UTC NOAA

KCMH 292351Z 20006KT 10SM CLR 28/09 A3019 RMK AO2 SLP217 T02830089 10311 20278 55006 $


Station Type Date Time Source
KCMH Decoded METAR 2022/06/29 23:51 UTC NOAA

PORT COLUMBUS INTERNATIONAL AIRPORT, OH, United States (KCMH) 40-00N 82-53W 247M
Jun 29, 2022 - 07:51 PM EDT / 2022.06.29 2351 UTC
Wind: from the SSW (200 degrees) at 7 MPH (6 KT):0
Visibility: 10 mile(s):0
Sky conditions: clear
Temperature: 82.9 F (28.3 C)
Dew Point: 48.0 F (8.9 C)
Relative Humidity: 29%
Pressure (altimeter): 30.19 in. Hg (1022 hPa)
Pressure tendency: 0.02 inches (0.6 hPa) lower than three hours ago
ob: KCMH 292351Z 20006KT 10SM CLR 28/09 A3019 RMK AO2 SLP217 T02830089 10311 20278 55006
cycle: 0

Station Type Date Time Source
KCMH TAF 2022/06/29 18:27 UTC NOAA

TAF KCMH 291725Z 2918/3018 24005KT P6SM FEW070
FM300000 VRB04KT P6SM FEW250
FM301500 18006KT P6SM FEW050

Example: see airport list